Strona główna
METAR-TAF:

METAR-TAF

Lotnisko :

Platforma wiertnicza

P11-b, Holandia

Szerokość geograficzna: 52-21-36N, Długość geograficzna: 3-20-30E, wysokość: 24 m

Aktualna obserwacja pogody

Raport powstał 48 minut temu, godzina 06:25 UTC
Wiatr 22 kt od zachodnio-północny zachód, zmienny między południowo-południowy zachód i północ
Temperatura 5°C
Wilgotność 81%
Ciśnienie 994 hPa
Widzialność 10 km lub więcej
Rozproszone chmury na wysokości 1500 ft
Rozproszone chmury na wysokości 1800 ft
Przerywane chmury na wysokości 2100 ft

METAR: EHPG 260625Z AUTO 29022KT 210V350 9999 SCT015 SCT018 BKN021 05/02 Q0994

czas: 08:13 (07:13 UTC)


TAF: brakujący

Obserwacja i prognoza pogody dla ponad 4000 lotnisk (raport METAR i TAF).

Dostępne stacje oznaczono żółtymi i czerwonymi punktami na mapie.

Najedź kursorem aby zobaczyć nazwę stacji.

Kliknij aby zobaczyć obserwacje i prognozy pogody.

Aby zmienić mapę: kliknij na zielony przycisk z czarnym krzyżykiem, aby powiększyć; na zielony przycisk z myślnikiem, aby pomniejszyć; na zielone strzałki, aby przejść do map sąsiednich.


METAR-TAF: